Fivelborg — PCEL — position and weather

sailwx.info

Track history (hours):
 
Tides and Currents Weather Stations Pressure Air Temp Water Temp Dewpoint Dewpoint Depression Visibility Wind Speed Wind Dir Waves Ship Positions

Fivelborg

Last reported at 2018-Jun-17 18:01 UTC. Time now 2018-Jun-18 03:47 UTC.
Position N 50°11' W 001°50'.

Length 154 m; draft 7.7 m.

Type: Cargo ship. MMSI: 245466000.

Date/timePositionNaut miles runAvg speedWind from/ knotsBaromVisibWave heightAir tempDewpointWater temp
2018-Jun-17 18:01N 50°11' W 001°50'5913.3
2018-Jun-17 13:36N 50°27' W 000°22'32 9.7
2018-Jun-17 10:19N 50°36' E 000°26'310.2
2018-Jun-17 10:00N 50°37' E 000°31'511.0
2018-Jun-17 09:30N 50°40' E 000°38'612.1
2018-Jun-17 09:00N 50°44' E 000°46'713.0
2018-Jun-17 08:30N 50°48' E 000°54'713.4
2018-Jun-17 08:00N 50°52' E 001°03'713.4
2018-Jun-17 07:30N 50°56' E 001°11'713.4
2018-Jun-17 07:00N 51°00' E 001°19'612.7
2018-Jun-17 06:30N 51°04' E 001°27'611.6
2018-Jun-17 06:00N 51°07' E 001°34'510.5
2018-Jun-17 05:30N 51°11' E 001°41'510.2
2018-Jun-17 05:00N 51°15' E 001°46'5 9.9
2018-Jun-17 04:30N 51°19' E 001°50'5 9.5
2018-Jun-17 04:00N 51°23' E 001°53'5 9.3
2018-Jun-17 03:30N 51°27' E 001°57'5 9.7
2018-Jun-17 03:00N 51°31' E 002°02'510.2
2018-Jun-17 02:30N 51°35' E 002°08'510.2
2018-Jun-17 02:00N 51°38' E 002°14'510.8
2018-Jun-17 01:30N 51°42' E 002°20'611.6
2018-Jun-17 01:00N 51°47' E 002°26'4113.1
2018-Jun-16 21:50N 52°19' E 003°08'412.7
2018-Jun-16 21:30N 52°22' E 003°12'612.3
2018-Jun-16 20:59N 52°27' E 003°18'1011.8
2018-Jun-16 20:09N 52°35' E 003°28'211.3
2018-Jun-16 19:58N 52°37' E 003°30'611.1
2018-Jun-16 19:26N 52°42' E 003°36'610.8
2018-Jun-16 18:50N 52°46' E 003°43'410.5
2018-Jun-16 18:27N 52°50' E 003°47'510.4
2018-Jun-16 17:58N 52°54' E 003°52'710.3
2018-Jun-16 17:18N 52°58' E 004°00'310.2
2018-Jun-16 16:58N 53°01' E 004°05'710.6
2018-Jun-16 16:21N 53°05' E 004°13'411.4
2018-Jun-16 15:59N 53°07' E 004°18'611.5
2018-Jun-16 15:30N 53°11' E 004°25'612.3
2018-Jun-16 14:59N 53°17' E 004°28'342 8.2
2018-Jun-14 21:05N 57°34' E 011°05'111.8
2018-Jun-14 20:59N 57°34' E 011°08'611.8
2018-Jun-14 20:29N 57°32' E 011°18'611.5
2018-Jun-14 19:56N 57°27' E 011°26'611.4
2018-Jun-14 19:24N 57°22' E 011°30'8011.0
2018-Jun-14 12:08N 56°09' E 012°31'211.5
2018-Jun-14 11:59N 56°07' E 012°33'511.0
2018-Jun-14 11:30N 56°04' E 012°39'510.3
2018-Jun-14 11:00N 55°59' E 012°42'510.5
2018-Jun-14 10:30N 55°54' E 012°45'510.7
2018-Jun-14 10:00N 55°48' E 012°43'611.1
2018-Jun-14 09:30N 55°43' E 012°41'5 9.8
2018-Jun-14 09:00N 55°38' E 012°42'3 6.9
2018-Jun-14 08:30N 55°34' E 012°42'4 7.7
2018-Jun-14 08:00N 55°31' E 012°43'611.4
2018-Jun-14 07:30N 55°25' E 012°41'611.8
2018-Jun-14 07:00N 55°19' E 012°40'3511.1
2018-Jun-14 03:49N 55°14' E 013°41'1711.7
2018-Jun-14 02:20N 55°13' E 014°12'910.8
2018-Jun-14 01:33N 55°19' E 014°24'111.8
2018-Jun-14 01:29N 55°19' E 014°25'611.9
2018-Jun-14 01:00N 55°24' E 014°31'611.6
2018-Jun-14 00:26N 55°28' E 014°39'511.7
2018-Jun-14 00:00N 55°31' E 014°47'611.7
2018-Jun-13 23:30N 55°34' E 014°56'611.7
2018-Jun-13 23:00N 55°36' E 015°05'611.8
2018-Jun-13 22:30N 55°39' E 015°14'611.8
2018-Jun-13 21:59N 55°43' E 015°23'612.0
2018-Jun-13 21:30N 55°45' E 015°32'611.9
2018-Jun-13 21:00N 55°48' E 015°41'21311.5
2018-Jun-13 02:24N 58°50' E 019°10'511.3
2018-Jun-13 01:59N 58°54' E 019°15'611.4
2018-Jun-13 01:27N 58°59' E 019°21'611.6
2018-Jun-13 00:58N 59°04' E 019°26'611.5
2018-Jun-13 00:29N 59°08' E 019°32'611.7
2018-Jun-12 23:56N 59°14' E 019°38'611.7
2018-Jun-12 23:26N 59°19' E 019°44'711.7
2018-Jun-12 22:50N 59°25' E 019°51'711.6
2018-Jun-12 22:15N 59°31' E 019°57'311.7
2018-Jun-12 21:59N 59°34' E 019°58'611.2
2018-Jun-12 21:25N 59°40' E 019°52'511.7
2018-Jun-12 20:59N 59°44' E 019°46'611.7
2018-Jun-12 20:30N 59°48' E 019°39'611.7
2018-Jun-12 19:59N 59°53' E 019°31'611.6
2018-Jun-12 19:30N 59°57' E 019°24'611.8
2018-Jun-12 19:00N 60°01' E 019°16'611.8
2018-Jun-12 18:30N 60°06' E 019°09'611.9
2018-Jun-12 18:00N 60°11' E 019°01'611.8
2018-Jun-12 17:30N 60°17' E 019°01'612.0
2018-Jun-12 17:00N 60°23' E 018°60'611.9
2018-Jun-12 16:30N 60°29' E 018°59'711.9
2018-Jun-12 15:54N 60°36' E 019°02'511.9
2018-Jun-12 15:30N 60°40' E 019°04'611.8
2018-Jun-12 15:00N 60°46' E 019°07'611.9
2018-Jun-12 14:30N 60°52' E 019°09'  
Track history (hours):
 
Tides and Currents Weather Stations Pressure Air Temp Water Temp Dewpoint Dewpoint Depression Visibility Wind Speed Wind Dir Waves Ship Positions

Fivelborg

Last reported at 2018-Jun-17 18:01 UTC. Time now 2018-Jun-18 03:47 UTC.
Position N 50°11' W 001°50'.

Length 154 m; draft 7.7 m.

Type: Cargo ship. MMSI: 245466000.

Date/timePositionNaut miles runAvg speedWind from/ knotsBaromVisibWave heightAir tempDewpointWater temp
2018-Jun-17 18:01N 50°11' W 001°50'5913.3
2018-Jun-17 13:36N 50°27' W 000°22'32 9.7
2018-Jun-17 10:19N 50°36' E 000°26'310.2
2018-Jun-17 10:00N 50°37' E 000°31'511.0
2018-Jun-17 09:30N 50°40' E 000°38'612.1
2018-Jun-17 09:00N 50°44' E 000°46'713.0
2018-Jun-17 08:30N 50°48' E 000°54'713.4
2018-Jun-17 08:00N 50°52' E 001°03'713.4
2018-Jun-17 07:30N 50°56' E 001°11'713.4
2018-Jun-17 07:00N 51°00' E 001°19'612.7
2018-Jun-17 06:30N 51°04' E 001°27'611.6
2018-Jun-17 06:00N 51°07' E 001°34'510.5
2018-Jun-17 05:30N 51°11' E 001°41'510.2
2018-Jun-17 05:00N 51°15' E 001°46'5 9.9
2018-Jun-17 04:30N 51°19' E 001°50'5 9.5
2018-Jun-17 04:00N 51°23' E 001°53'5 9.3
2018-Jun-17 03:30N 51°27' E 001°57'5 9.7
2018-Jun-17 03:00N 51°31' E 002°02'510.2
2018-Jun-17 02:30N 51°35' E 002°08'510.2
2018-Jun-17 02:00N 51°38' E 002°14'510.8
2018-Jun-17 01:30N 51°42' E 002°20'611.6
2018-Jun-17 01:00N 51°47' E 002°26'4113.1
2018-Jun-16 21:50N 52°19' E 003°08'412.7
2018-Jun-16 21:30N 52°22' E 003°12'612.3
2018-Jun-16 20:59N 52°27' E 003°18'1011.8
2018-Jun-16 20:09N 52°35' E 003°28'211.3
2018-Jun-16 19:58N 52°37' E 003°30'611.1
2018-Jun-16 19:26N 52°42' E 003°36'610.8
2018-Jun-16 18:50N 52°46' E 003°43'410.5
2018-Jun-16 18:27N 52°50' E 003°47'510.4
2018-Jun-16 17:58N 52°54' E 003°52'710.3
2018-Jun-16 17:18N 52°58' E 004°00'310.2
2018-Jun-16 16:58N 53°01' E 004°05'710.6
2018-Jun-16 16:21N 53°05' E 004°13'411.4
2018-Jun-16 15:59N 53°07' E 004°18'611.5
2018-Jun-16 15:30N 53°11' E 004°25'612.3
2018-Jun-16 14:59N 53°17' E 004°28'342 8.2
2018-Jun-14 21:05N 57°34' E 011°05'111.8
2018-Jun-14 20:59N 57°34' E 011°08'611.8
2018-Jun-14 20:29N 57°32' E 011°18'611.5
2018-Jun-14 19:56N 57°27' E 011°26'611.4
2018-Jun-14 19:24N 57°22' E 011°30'8011.0
2018-Jun-14 12:08N 56°09' E 012°31'211.5
2018-Jun-14 11:59N 56°07' E 012°33'511.0
2018-Jun-14 11:30N 56°04' E 012°39'510.3
2018-Jun-14 11:00N 55°59' E 012°42'510.5
2018-Jun-14 10:30N 55°54' E 012°45'510.7
2018-Jun-14 10:00N 55°48' E 012°43'611.1
2018-Jun-14 09:30N 55°43' E 012°41'5 9.8
2018-Jun-14 09:00N 55°38' E 012°42'3 6.9
2018-Jun-14 08:30N 55°34' E 012°42'4 7.7
2018-Jun-14 08:00N 55°31' E 012°43'611.4
2018-Jun-14 07:30N 55°25' E 012°41'611.8
2018-Jun-14 07:00N 55°19' E 012°40'3511.1
2018-Jun-14 03:49N 55°14' E 013°41'1711.7
2018-Jun-14 02:20N 55°13' E 014°12'910.8
2018-Jun-14 01:33N 55°19' E 014°24'111.8
2018-Jun-14 01:29N 55°19' E 014°25'611.9
2018-Jun-14 01:00N 55°24' E 014°31'611.6
2018-Jun-14 00:26N 55°28' E 014°39'511.7
2018-Jun-14 00:00N 55°31' E 014°47'611.7
2018-Jun-13 23:30N 55°34' E 014°56'611.7
2018-Jun-13 23:00N 55°36' E 015°05'611.8
2018-Jun-13 22:30N 55°39' E 015°14'611.8
2018-Jun-13 21:59N 55°43' E 015°23'612.0
2018-Jun-13 21:30N 55°45' E 015°32'611.9
2018-Jun-13 21:00N 55°48' E 015°41'21311.5
2018-Jun-13 02:24N 58°50' E 019°10'511.3
2018-Jun-13 01:59N 58°54' E 019°15'611.4
2018-Jun-13 01:27N 58°59' E 019°21'611.6
2018-Jun-13 00:58N 59°04' E 019°26'611.5
2018-Jun-13 00:29N 59°08' E 019°32'611.7
2018-Jun-12 23:56N 59°14' E 019°38'611.7
2018-Jun-12 23:26N 59°19' E 019°44'711.7
2018-Jun-12 22:50N 59°25' E 019°51'711.6
2018-Jun-12 22:15N 59°31' E 019°57'311.7
2018-Jun-12 21:59N 59°34' E 019°58'611.2
2018-Jun-12 21:25N 59°40' E 019°52'511.7
2018-Jun-12 20:59N 59°44' E 019°46'611.7
2018-Jun-12 20:30N 59°48' E 019°39'611.7
2018-Jun-12 19:59N 59°53' E 019°31'611.6
2018-Jun-12 19:30N 59°57' E 019°24'611.8
2018-Jun-12 19:00N 60°01' E 019°16'611.8
2018-Jun-12 18:30N 60°06' E 019°09'611.9
2018-Jun-12 18:00N 60°11' E 019°01'611.8
2018-Jun-12 17:30N 60°17' E 019°01'612.0
2018-Jun-12 17:00N 60°23' E 018°60'611.9
2018-Jun-12 16:30N 60°29' E 018°59'711.9
2018-Jun-12 15:54N 60°36' E 019°02'511.9
2018-Jun-12 15:30N 60°40' E 019°04'611.8
2018-Jun-12 15:00N 60°46' E 019°07'611.9
2018-Jun-12 14:30N 60°52' E 019°09'  

Dump ship's entire track history